createdAt,value
2023-02-23T08:45:30.951Z,46.18
2023-02-23T08:48:02.132Z,46.42
2023-02-23T08:50:33.386Z,46.37
2023-02-23T08:57:05.723Z,46.26
2023-02-23T08:59:40.225Z,46.18
2023-02-23T09:02:08.628Z,46.11
2023-02-23T09:04:38.548Z,45.93
2023-02-23T09:11:26.635Z,46.09
2023-02-23T09:14:23.272Z,46.16
2023-02-23T09:16:55.747Z,46.25
2023-02-23T09:19:26.846Z,46.21
2023-02-23T09:22:30.124Z,46.19
2023-02-23T09:25:45.675Z,46.15
2023-02-23T09:28:22.777Z,46.09
2023-02-23T09:31:10.449Z,46.03
2023-02-23T09:33:40.211Z,46.18
2023-02-23T09:40:33.045Z,46.27
2023-02-23T09:43:11.296Z,46.17
2023-02-23T09:45:43.999Z,46.05
2023-02-23T09:48:16.883Z,46.17
2023-02-23T09:54:59.594Z,46.12
2023-02-23T09:57:33.884Z,46.08
2023-02-23T10:00:04.918Z,46.08
2023-02-23T10:02:37.507Z,46.13
2023-02-23T10:09:36.522Z,46.12
2023-02-23T10:12:08.253Z,46.18
2023-02-23T10:14:51.610Z,46.12
2023-02-23T10:17:22.898Z,46.08
2023-02-23T10:27:18.176Z,46.02
2023-02-23T10:29:51.662Z,45.85
2023-02-23T10:32:24.132Z,45.96
2023-02-23T10:39:15.011Z,45.89
2023-02-23T10:41:51.102Z,45.95
2023-02-23T10:44:24.413Z,45.87
2023-02-23T10:47:02.375Z,45.81
2023-02-23T10:50:30.066Z,45.79
2023-02-23T10:54:07.841Z,45.74
2023-02-23T10:56:36.613Z,45.81
2023-02-23T10:59:05.014Z,45.97
2023-02-23T11:06:23.388Z,45.79
2023-02-23T11:08:53.413Z,45.79
2023-02-23T11:11:26.362Z,45.80
2023-02-23T11:13:58.388Z,45.82
2023-02-23T11:21:07.229Z,45.99
2023-02-23T11:23:36.902Z,46.05
2023-02-23T11:26:20.624Z,45.99
2023-02-23T11:28:49.148Z,46.11
2023-02-23T11:35:57.473Z,46.20
2023-02-23T11:38:56.326Z,46.15
2023-02-23T11:41:31.855Z,46.25
2023-02-23T11:44:06.254Z,46.23
2023-02-23T11:51:10.995Z,46.17
2023-02-23T11:53:45.348Z,46.18
2023-02-23T11:56:20.570Z,46.19
2023-02-23T12:03:42.439Z,46.33
2023-02-23T12:06:14.076Z,46.15
2023-02-23T12:08:49.973Z,46.28
2023-02-23T12:11:22.552Z,46.34
2023-02-23T12:18:31.071Z,46.44
2023-02-23T12:21:00.217Z,46.39
2023-02-23T12:23:35.336Z,46.37
2023-02-23T12:26:08.398Z,46.29
2023-02-23T12:33:14.023Z,46.47
2023-02-23T12:35:46.137Z,46.46
2023-02-23T12:38:34.334Z,46.43
2023-02-23T12:41:24.919Z,46.48
2023-02-23T12:48:22.661Z,46.47
2023-02-23T12:50:54.684Z,46.52
2023-02-23T12:53:23.765Z,46.59
2023-02-23T12:55:57.733Z,46.62
2023-02-23T13:02:34.916Z,46.55
2023-02-23T13:05:15.590Z,46.57
2023-02-23T13:07:50.456Z,46.65
2023-02-23T13:17:40.710Z,46.68
2023-02-23T13:20:11.041Z,46.72
2023-02-23T13:22:45.354Z,46.75
2023-02-23T13:32:40.837Z,46.94
2023-02-23T13:35:19.381Z,46.83
2023-02-23T13:38:05.111Z,46.79
2023-02-23T13:45:33.255Z,46.93
2023-02-23T13:48:36.599Z,46.86
2023-02-23T13:51:43.714Z,47.07
2023-02-23T13:59:22.371Z,46.98
2023-02-23T14:02:21.707Z,47.00
2023-02-23T14:13:22.137Z,47.16
2023-02-23T14:16:41.394Z,47.27
2023-02-23T14:19:51.488Z,47.19
2023-02-23T14:30:55.581Z,47.29
2023-02-23T14:33:59.767Z,47.35
2023-02-23T14:41:34.311Z,47.28
2023-02-23T18:04:49.421Z,48.56
2023-02-23T18:07:17.341Z,48.50
2023-02-23T18:09:45.351Z,48.48
2023-02-23T18:12:13.122Z,48.39
2023-02-23T18:14:40.759Z,48.58
2023-02-23T18:17:08.332Z,48.47
2023-02-23T18:19:35.925Z,48.44
2023-02-23T18:22:04.944Z,48.55
2023-02-23T18:24:32.670Z,48.57
2023-02-23T18:27:01.754Z,48.63
2023-02-23T18:29:29.957Z,48.63
2023-02-23T18:31:57.779Z,48.51
2023-02-23T18:34:25.513Z,48.64
2023-02-23T18:36:53.124Z,48.60
2023-02-23T18:39:22.169Z,48.59
2023-02-23T18:41:50.028Z,48.52
2023-02-23T18:44:18.069Z,48.48
2023-02-23T18:46:46.623Z,48.51
2023-02-23T18:49:14.998Z,48.48
2023-02-23T18:51:43.499Z,48.49
2023-02-23T18:54:18.245Z,48.37
2023-02-23T18:56:47.650Z,48.44
2023-02-23T18:59:15.291Z,48.36
2023-02-23T19:01:46.728Z,48.47
2023-02-23T19:04:14.608Z,48.39
2023-02-23T19:06:42.466Z,48.48
2023-02-23T19:09:13.387Z,48.52
2023-02-23T19:15:35.561Z,48.53
2023-02-23T19:18:05.195Z,48.46
2023-02-23T19:20:35.936Z,48.56
2023-02-23T19:23:04.222Z,48.71
2023-02-23T19:25:32.229Z,48.64
2023-02-23T19:28:00.128Z,48.80
2023-02-23T19:30:28.107Z,48.71
2023-02-23T19:32:58.562Z,48.72
2023-02-23T19:35:29.533Z,48.74
2023-02-23T19:37:59.978Z,48.80
2023-02-23T19:40:28.592Z,48.77
2023-02-23T19:42:56.643Z,48.83
2023-02-23T19:45:26.086Z,48.72
2023-02-23T19:47:54.153Z,48.80
2023-02-23T19:50:27.527Z,48.77
2023-02-23T19:52:59.908Z,48.95
2023-02-23T19:55:28.179Z,48.76
2023-02-23T19:57:57.906Z,48.84
2023-02-23T20:00:26.024Z,48.87
2023-02-23T20:02:55.089Z,48.97
2023-02-23T20:05:23.510Z,48.90
2023-02-23T20:07:53.795Z,48.78
2023-02-23T20:10:28.765Z,48.89
2023-02-23T20:13:34.500Z,49.03
2023-02-23T20:17:02.771Z,48.98
2023-02-23T20:33:13.927Z,48.72
2023-02-23T21:49:40.721Z,48.43
2023-02-23T21:52:08.787Z,48.41
2023-02-23T21:54:36.660Z,48.45
2023-02-23T21:57:05.343Z,48.45
2023-02-23T21:59:35.374Z,48.45
2023-02-23T22:02:03.807Z,48.52
2023-02-23T22:07:22.069Z,48.48
2023-02-23T22:09:50.310Z,48.38
2023-02-23T22:12:18.854Z,48.47
2023-02-23T22:14:49.157Z,48.37
2023-02-23T22:17:19.571Z,48.46
2023-02-23T22:19:48.397Z,48.40
2023-02-23T22:22:16.151Z,48.31
2023-02-23T22:24:45.793Z,48.42
2023-02-23T22:27:14.087Z,48.31
2023-02-23T22:29:42.124Z,48.33
2023-02-23T22:32:10.485Z,48.39
2023-02-23T22:34:39.050Z,48.45
2023-02-23T22:37:07.568Z,48.37
2023-02-23T22:39:35.430Z,48.51
2023-02-23T22:42:09.355Z,48.38
2023-02-23T22:44:38.119Z,48.31
2023-02-23T22:47:06.583Z,48.34
2023-02-23T22:49:34.706Z,48.32
2023-02-23T22:52:02.544Z,48.41
2023-02-23T22:54:31.586Z,48.38
2023-02-23T22:56:59.454Z,48.37
2023-02-23T22:59:30.554Z,48.33
2023-02-23T23:01:58.292Z,48.37
2023-02-23T23:04:27.570Z,48.43
2023-02-23T23:06:55.407Z,48.36
2023-02-23T23:09:23.120Z,48.34
2023-02-23T23:11:51.910Z,48.26
2023-02-23T23:14:20.382Z,48.28
2023-02-23T23:16:50.613Z,48.42
2023-02-23T23:19:19.097Z,48.38
2023-02-23T23:21:47.133Z,48.48
2023-02-23T23:24:15.472Z,48.39
2023-02-23T23:26:44.412Z,48.42
2023-02-23T23:29:12.927Z,48.34
2023-02-23T23:31:41.277Z,48.47
2023-02-23T23:34:11.521Z,48.37
2023-02-23T23:36:43.009Z,48.40
2023-02-23T23:39:12.249Z,48.31
2023-02-23T23:41:43.066Z,48.33
2023-02-23T23:44:13.336Z,48.33
2023-02-23T23:46:43.001Z,48.37
2023-02-23T23:49:12.984Z,48.38
2023-02-23T23:51:44.941Z,48.32
2023-02-23T23:54:13.578Z,48.27
2023-02-23T23:56:41.903Z,48.42
2023-02-23T23:59:11.324Z,48.26
